Time;durP1;ratioP1;P1;durP2;ratioP2;P2;SDS_P1;SDS_P2;PMS_P1;PMS_P2;Temp;Humidity;BMP_temperature;BMP_pressure;BME280_temperature;BME280_humidity;BME280_pressure;Samples;Min_cycle;Max_cycle;Signal;HPM_P1;HPM_P2
2022/09/05 00:00:21;;;;;;;0.82;0.43;;;;;;;17.59;50.32;101398.34;4886449;28;97928;-74
2022/09/05 00:03:19;;;;;;;0.98;0.50;;;;;;;17.56;50.22;101393.47;4839988;28;98472;-74
2022/09/05 00:06:01;;;;;;;1.20;0.50;;;;;;;17.54;50.32;101392.97;4870330;28;98645;-74
2022/09/05 00:08:30;;;;;;;1.10;0.50;;;;;;;17.52;50.94;101394.34;4863898;28;98196;-74
2022/09/05 00:11:38;;;;;;;1.60;0.60;;;;;;;17.49;50.45;101390.31;4908284;28;100004;-75
2022/09/05 00:14:45;;;;;;;1.90;0.63;;;;;;;17.47;50.57;101394.44;4877863;28;98123;-66
2022/09/05 00:17:54;;;;;;;1.80;0.40;;;;;;;17.40;50.49;101392.84;4872186;28;99710;-66
2022/09/05 00:20:41;;;;;;;2.20;0.50;;;;;;;17.37;50.68;101393.47;4869126;28;98284;-66
2022/09/05 00:23:21;;;;;;;2.63;0.73;;;;;;;17.36;51.40;101397.25;4859364;28;98116;-74
2022/09/05 00:26:09;;;;;;;1.60;0.65;;;;;;;17.33;50.87;101392.41;4875469;28;98615;-66
2022/09/05 00:28:46;;;;;;;1.10;0.47;;;;;;;17.30;51.16;101390.25;4885608;28;98185;-70
2022/09/05 00:31:44;;;;;;;1.35;0.60;;;;;;;17.28;51.16;101387.00;4879347;28;98603;-66
2022/09/05 00:34:49;;;;;;;2.05;0.60;;;;;;;17.27;51.60;101385.38;4897438;28;98425;-66
2022/09/05 00:37:51;;;;;;;1.65;0.60;;;;;;;17.26;51.14;101388.41;4907097;28;98322;-74
2022/09/05 00:40:57;;;;;;;2.03;0.50;;;;;;;17.22;51.22;101385.47;4845552;28;97997;-73
2022/09/05 00:43:45;;;;;;;1.80;0.52;;;;;;;17.21;51.42;101389.25;4876391;28;98034;-66
2022/09/05 00:46:38;;;;;;;2.60;0.70;;;;;;;17.19;51.22;101391.47;4857109;28;98515;-74
2022/09/05 00:49:58;;;;;;;3.05;0.60;;;;;;;17.18;51.39;101393.41;4864276;28;98359;-75
2022/09/05 00:52:48;;;;;;;1.33;0.60;;;;;;;17.14;51.42;101386.91;4867798;28;98490;-74
2022/09/05 00:55:30;;;;;;;1.58;0.60;;;;;;;17.12;51.72;101394.53;4863380;28;98433;-66
2022/09/05 00:58:39;;;;;;;1.55;0.40;;;;;;;17.13;51.52;101389.91;4878330;28;98302;-66
2022/09/05 01:01:30;;;;;;;1.33;0.70;;;;;;;17.10;51.52;101391.31;4873295;28;98070;-66
2022/09/05 01:04:33;;;;;;;1.50;0.50;;;;;;;17.08;51.88;101393.50;4877210;28;98619;-66
2022/09/05 01:07:28;;;;;;;2.30;0.63;;;;;;;17.08;51.61;101389.97;4857602;28;98174;-66
2022/09/05 01:10:26;;;;;;;0.98;0.50;;;;;;;17.04;51.83;101389.72;4880444;28;98188;-75
2022/09/05 01:13:36;;;;;;;1.17;0.50;;;;;;;17.01;52.08;101387.56;4876825;28;98000;-75
2022/09/05 01:16:27;;;;;;;2.03;0.85;;;;;;;17.00;52.39;101399.56;4906978;28;98837;-75
2022/09/05 01:19:21;;;;;;;2.50;0.85;;;;;;;16.99;51.99;101399.88;4880605;28;98056;-66
2022/09/05 01:22:20;;;;;;;3.47;0.80;;;;;;;16.97;52.14;101402.06;4845305;28;98006;-74
2022/09/05 01:25:06;;;;;;;1.55;0.80;;;;;;;16.91;52.75;101399.38;4880939;28;98161;-75
2022/09/05 01:27:35;;;;;;;1.65;0.68;;;;;;;16.88;52.81;101401.88;4899663;28;98562;-74
2022/09/05 01:30:33;;;;;;;1.45;0.63;;;;;;;16.84;52.62;101409.78;4887487;28;98266;-66
2022/09/05 01:33:23;;;;;;;2.75;0.70;;;;;;;16.83;52.51;101412.81;4867834;28;98423;-74
2022/09/05 01:36:16;;;;;;;1.58;0.80;;;;;;;16.81;52.85;101407.63;4888569;28;98195;-74
2022/09/05 01:39:05;;;;;;;2.60;0.82;;;;;;;16.79;52.65;101409.84;4877629;28;98352;-66
2022/09/05 01:41:51;;;;;;;1.40;0.70;;;;;;;16.77;52.77;101412.03;4869685;28;98584;-66
2022/09/05 01:44:42;;;;;;;3.75;0.77;;;;;;;16.77;52.60;101412.03;4881550;28;98716;-66
2022/09/05 01:47:38;;;;;;;2.72;0.70;;;;;;;16.76;52.88;101413.13;4876836;28;98000;-66
2022/09/05 01:50:40;;;;;;;1.90;0.88;;;;;;;16.76;52.83;101417.78;4891622;28;98172;-66
2022/09/05 01:53:08;;;;;;;2.28;0.90;;;;;;;16.74;53.32;101414.50;4850853;28;98525;-66
2022/09/05 01:56:05;;;;;;;1.85;0.60;;;;;;;16.72;52.84;101417.50;4893768;28;98195;-74
2022/09/05 01:59:15;;;;;;;1.83;0.75;;;;;;;16.70;53.08;101414.22;4861605;28;98171;-66
2022/09/05 02:02:29;;;;;;;1.35;0.57;;;;;;;16.69;53.16;101420.78;4875700;28;98322;-74
2022/09/05 02:05:32;;;;;;;1.83;0.88;;;;;;;16.67;53.08;101417.56;4872480;28;98136;-74
2022/09/05 02:08:05;;;;;;;2.17;0.82;;;;;;;16.64;53.70;101418.94;4877013;28;97931;-66
2022/09/05 02:11:09;;;;;;;4.03;0.82;;;;;;;16.64;53.12;101418.94;4885330;28;98392;-66
2022/09/05 02:13:36;;;;;;;2.15;0.70;;;;;;;16.62;53.77;101421.13;4854819;28;98218;-74
2022/09/05 02:16:51;;;;;;;1.98;1.00;;;;;;;16.60;53.27;101417.06;4885178;28;98412;-74
2022/09/05 02:19:53;;;;;;;2.70;0.93;;;;;;;16.58;53.37;101419.25;4877969;28;98792;-67
2022/09/05 02:22:55;;;;;;;2.75;1.02;;;;;;;16.56;53.40;101424.16;4863900;28;98068;-67
2022/09/05 02:26:05;;;;;;;1.70;0.85;;;;;;;16.53;53.53;101417.38;4875848;28;98404;-74
2022/09/05 02:28:58;;;;;;;2.72;1.20;;;;;;;16.51;53.42;101418.78;4884962;28;98267;-66
2022/09/05 02:31:47;;;;;;;1.33;0.60;;;;;;;16.49;53.79;101413.59;4867647;28;98540;-66
2022/09/05 02:34:34;;;;;;;2.50;0.95;;;;;;;16.47;53.89;101415.81;4888301;28;98381;-74
2022/09/05 02:37:11;;;;;;;2.30;0.85;;;;;;;16.44;53.62;101419.09;4882391;28;97719;-75
2022/09/05 02:39:56;;;;;;;2.33;0.90;;;;;;;16.43;53.64;101417.47;4877738;28;98051;-74
2022/09/05 02:42:56;;;;;;;3.72;1.10;;;;;;;16.39;53.89;101417.22;4890063;28;98812;-74
2022/09/05 02:46:17;;;;;;;1.98;1.05;;;;;;;16.35;53.90;101423.53;4855782;28;98356;-74
2022/09/05 02:49:05;;;;;;;2.55;0.93;;;;;;;16.32;53.85;101416.72;4888892;28;99420;-74
2022/09/05 02:51:46;;;;;;;5.47;1.20;;;;;;;16.30;53.96;101421.63;4856794;28;98384;-66
2022/09/05 02:54:19;;;;;;;1.98;0.95;;;;;;;16.28;53.98;101418.38;4880640;28;98295;-75
2022/09/05 02:56:52;;;;;;;2.75;1.10;;;;;;;16.29;54.63;101419.19;4878283;28;99812;-65
2022/09/05 02:59:52;;;;;;;;;;;;;;;16.29;53.31;101422.72;4892709;28;98497;-74
2022/09/05 03:03:11;;;;;;;2.30;0.90;;;;;;;16.22;53.72;101410.53;4880802;28;97784;-66
2022/09/05 03:06:24;;;;;;;2.28;0.88;;;;;;;16.19;53.79;101415.47;4880787;28;98358;-66
2022/09/05 03:09:32;;;;;;;2.80;0.85;;;;;;;16.17;53.94;101411.38;4880794;28;98512;-74
2022/09/05 03:12:47;;;;;;;2.35;1.02;;;;;;;16.11;54.11;101410.63;4910137;28;98469;-66
2022/09/05 03:15:58;;;;;;;2.83;1.30;;;;;;;16.08;54.04;101410.38;4894321;28;98017;-66
2022/09/05 03:18:30;;;;;;;1.98;1.08;;;;;;;16.06;54.69;101409.81;4875826;28;98105;-66
2022/09/05 03:21:22;;;;;;;4.65;1.17;;;;;;;16.05;54.67;101416.34;4891203;28;98065;-66
2022/09/05 03:24:29;;;;;;;3.30;1.13;;;;;;;16.03;54.36;101408.47;4901878;28;98033;-74
2022/09/05 03:27:37;;;;;;;2.72;1.23;;;;;;;15.98;54.58;101413.94;4892772;28;98259;-66
2022/09/05 03:30:25;;;;;;;2.78;1.08;;;;;;;15.99;54.52;101409.31;4883570;28;98265;-66
2022/09/05 03:33:39;;;;;;;2.20;1.10;;;;;;;15.95;54.37;101415.34;4841104;28;98352;-67
2022/09/05 03:36:43;;;;;;;2.63;1.00;;;;;;;15.99;54.62;101412.84;4882647;28;98157;-65
2022/09/05 03:39:56;;;;;;;1.48;0.77;;;;;;;16.06;54.44;101407.91;4880396;28;98178;-74
2022/09/05 03:42:43;;;;;;;2.53;1.02;;;;;;;16.10;54.65;101428.00;4901311;28;100143;-74
2022/09/05 03:45:27;;;;;;;5.15;1.10;;;;;;;16.15;54.71;101421.72;4871710;28;98323;-66
2022/09/05 03:48:22;;;;;;;3.28;1.00;;;;;;;16.15;55.03;101421.72;4887894;28;97970;-66
2022/09/05 03:51:18;;;;;;;1.88;0.95;;;;;;;16.18;54.67;101418.44;4877105;28;98305;-73
2022/09/05 03:53:57;;;;;;;1.85;1.05;;;;;;;16.18;54.67;101421.97;4860522;28;98123;-65
2022/09/05 03:57:03;;;;;;;3.65;1.00;;;;;;;16.17;54.86;101414.09;4877012;28;99109;-73
2022/09/05 03:59:45;;;;;;;1.55;0.80;;;;;;;16.18;55.14;101413.00;4875364;28;98519;-74
2022/09/05 04:02:14;;;;;;;1.88;0.85;;;;;;;16.18;55.22;101416.53;4872939;28;98485;-65
2022/09/05 04:05:00;;;;;;;2.00;0.65;;;;;;;16.18;54.99;101416.53;4841443;28;98524;-66
2022/09/05 04:07:46;;;;;;;2.97;0.85;;;;;;;16.18;54.70;101427.41;4874239;28;98426;-74
2022/09/05 04:10:49;;;;;;;2.10;0.80;;;;;;;16.17;55.01;101425.78;4858637;28;98148;-66
2022/09/05 04:13:27;;;;;;;1.50;0.70;;;;;;;16.14;55.11;101420.91;4860676;28;98083;-73
2022/09/05 04:16:42;;;;;;;1.98;1.02;;;;;;;16.14;54.81;101425.53;4858576;28;98151;-73
2022/09/05 04:19:25;;;;;;;2.72;1.08;;;;;;;16.09;55.08;101429.09;4878594;28;98356;-73
2022/09/05 04:22:14;;;;;;;;;;;;;;;16.12;54.33;101433.19;4884734;28;97940;-68
2022/09/05 04:25:06;;;;;;;2.55;1.13;;;;;;;16.03;54.64;101432.94;4873906;28;98140;-66
2022/09/05 04:28:07;;;;;;;3.70;1.23;;;;;;;15.98;55.18;101430.25;4885118;28;98053;-73
2022/09/05 04:31:24;;;;;;;2.28;1.00;;;;;;;15.94;55.14;101429.19;4873684;28;98216;-66
2022/09/05 04:34:00;;;;;;;2.03;0.80;;;;;;;15.89;55.16;101426.50;4846860;28;98313;-66
2022/09/05 04:36:32;;;;;;;2.08;0.77;;;;;;;15.88;55.37;101431.13;4891718;28;98428;-74
2022/09/05 04:39:20;;;;;;;3.28;1.02;;;;;;;15.87;55.17;101437.63;4860292;28;98106;-67
2022/09/05 04:42:08;;;;;;;1.92;0.90;;;;;;;15.86;55.27;101446.91;4876128;28;98684;-66
2022/09/05 04:44:43;;;;;;;2.35;0.80;;;;;;;15.88;55.54;101449.34;4882605;28;97865;-74
2022/09/05 04:47:29;;;;;;;4.35;1.20;;;;;;;15.91;55.38;101451.50;4878062;28;97953;-74
2022/09/05 04:50:27;;;;;;;3.40;0.90;;;;;;;15.89;55.32;101443.63;4869426;28;100514;-65
2022/09/05 04:53:44;;;;;;;2.50;0.88;;;;;;;15.95;54.79;101449.84;4860490;28;98433;-73
2022/09/05 04:56:35;;;;;;;3.92;0.98;;;;;;;15.94;55.35;101443.59;4875900;28;98265;-65
2022/09/05 04:59:36;;;;;;;1.80;0.80;;;;;;;16.01;54.99;101445.22;4904978;28;98606;-70
2022/09/05 05:02:44;;;;;;;2.00;1.10;;;;;;;16.06;55.03;101450.59;4862093;28;98045;-73
2022/09/05 05:05:21;;;;;;;2.58;1.10;;;;;;;16.10;55.10;101457.09;4871767;28;100158;-74
2022/09/05 05:08:37;;;;;;;2.53;1.27;;;;;;;16.15;55.21;101455.19;4855773;28;98021;-74
2022/09/05 05:11:20;;;;;;;1.73;1.05;;;;;;;16.20;55.14;101454.34;4883274;28;98211;-73
2022/09/05 05:14:05;;;;;;;2.10;0.90;;;;;;;16.20;55.05;101451.63;4838441;28;98228;-65
2022/09/05 05:16:48;;;;;;;3.63;1.15;;;;;;;16.20;55.51;101448.91;4857482;28;98319;-65
2022/09/05 05:19:43;;;;;;;;;;;;;;;16.29;54.48;101447.22;4881050;28;98807;-73
2022/09/05 05:22:15;;;;;;;1.42;0.70;;;;;;;16.23;55.05;101447.50;4862194;28;98301;-65
2022/09/05 05:24:53;;;;;;;2.72;0.80;;;;;;;16.24;55.02;101449.16;4840605;28;98477;-65
2022/09/05 05:27:29;;;;;;;2.25;1.13;;;;;;;16.28;55.48;101458.38;4857047;28;98363;-65
2022/09/05 05:30:06;;;;;;;2.10;1.08;;;;;;;16.37;54.91;101464.84;4895615;28;98329;-65
2022/09/05 05:32:52;;;;;;;2.20;0.90;;;;;;;16.57;54.50;101463.88;4846847;28;98055;-65
2022/09/05 05:35:28;;;;;;;1.70;0.90;;;;;;;16.74;54.75;101468.97;4847839;28;98650;-74
2022/09/05 05:38:31;;;;;;;4.75;1.20;;;;;;;16.65;54.65;101469.53;4863769;28;99041;-73
2022/09/05 05:41:37;;;;;;;3.28;1.40;;;;;;;16.72;54.61;101474.66;4860998;28;98398;-74
2022/09/05 05:44:26;;;;;;;2.67;0.90;;;;;;;16.78;54.64;101475.47;4905660;28;98170;-74
2022/09/05 05:47:29;;;;;;;3.08;1.02;;;;;;;16.77;54.58;101477.38;4845088;28;98628;-74
2022/09/05 05:50:44;;;;;;;2.13;1.08;;;;;;;16.77;54.71;101477.38;4885868;28;98681;-74
2022/09/05 05:53:57;;;;;;;2.05;1.15;;;;;;;16.78;54.82;101479.03;4864173;28;99752;-74
2022/09/05 05:56:38;;;;;;;2.28;0.98;;;;;;;16.82;54.93;101479.22;4868775;28;98154;-66
2022/09/05 05:59:53;;;;;;;3.90;1.10;;;;;;;16.93;54.72;101475.34;4882815;28;98144;-66
2022/09/05 06:03:06;;;;;;;3.30;1.02;;;;;;;17.02;54.56;101481.00;4878367;28;98116;-65
2022/09/05 06:06:09;;;;;;;3.25;1.30;;;;;;;17.11;54.45;101479.28;4871070;28;98633;-66
2022/09/05 06:09:10;;;;;;;2.42;1.50;;;;;;;17.22;54.53;101478.09;4842234;28;98549;-74
2022/09/05 06:12:23;;;;;;;2.60;1.25;;;;;;;17.30;54.47;101472.00;4869160;28;98159;-73
2022/09/05 06:15:48;;;;;;;2.70;1.40;;;;;;;17.41;54.43;101470.00;4879257;28;97931;-74
2022/09/05 06:18:38;;;;;;;2.08;1.25;;;;;;;17.49;54.29;101476.69;4819667;28;98065;-66
2022/09/05 06:21:50;;;;;;;1.75;1.23;;;;;;;17.62;54.16;101470.56;4872117;28;97799;-65
2022/09/05 06:24:53;;;;;;;3.00;1.20;;;;;;;17.71;54.07;101468.00;4859214;28;98981;-73
2022/09/05 06:27:37;;;;;;;2.70;1.53;;;;;;;17.78;54.07;101476.69;4865092;28;98738;-66
2022/09/05 06:30:13;;;;;;;3.22;1.60;;;;;;;17.86;54.07;101474.13;4878917;28;97908;-74
2022/09/05 06:33:25;;;;;;;4.97;1.52;;;;;;;17.97;53.93;101474.81;4855538;28;98661;-74
2022/09/05 06:36:22;;;;;;;2.95;1.40;;;;;;;18.07;53.94;101484.75;4873377;28;98035;-66
2022/09/05 06:39:18;;;;;;;2.50;1.15;;;;;;;18.32;53.67;101481.69;4909741;28;99168;-67
2022/09/05 06:42:04;;;;;;;3.60;1.83;;;;;;;18.58;53.38;101479.38;4904991;28;98012;-74
2022/09/05 06:44:39;;;;;;;2.50;1.45;;;;;;;18.78;53.30;101481.00;4876255;28;98639;-75
2022/09/05 06:47:18;;;;;;;2.42;1.38;;;;;;;18.93;53.31;101476.41;4896262;28;99512;-74
2022/09/05 06:50:06;;;;;;;3.75;1.55;;;;;;;19.00;53.14;101485.84;4849988;28;98742;-74
2022/09/05 06:53:25;;;;;;;4.10;1.67;;;;;;;19.11;53.02;101481.81;4866457;28;98324;-66
2022/09/05 06:55:57;;;;;;;3.00;1.77;;;;;;;19.16;53.17;101480.91;4874128;28;98113;-74
2022/09/05 06:58:41;;;;;;;2.00;1.50;;;;;;;19.26;52.92;101478.00;4887185;28;98381;-66
2022/09/05 07:01:12;;;;;;;3.22;1.70;;;;;;;19.31;52.96;101480.66;4871044;28;98354;-73
2022/09/05 07:04:17;;;;;;;3.47;1.58;;;;;;;19.46;52.71;101478.75;4845744;28;100389;-67
2022/09/05 07:07:22;;;;;;;5.57;1.90;;;;;;;19.47;52.69;101480.34;4878381;28;98181;-76
2022/09/05 07:10:13;;;;;;;3.47;1.80;;;;;;;19.65;52.65;101489.59;4882377;28;98473;-75
2022/09/05 07:13:03;;;;;;;5.05;1.90;;;;;;;19.95;52.11;101482.69;4860238;28;97858;-75
2022/09/05 07:16:00;;;;;;;4.95;1.83;;;;;;;19.93;52.16;101480.28;4865115;28;98638;-75
2022/09/05 07:18:43;;;;;;;3.03;1.63;;;;;;;20.08;52.00;101492.81;4877440;28;97821;-75
2022/09/05 07:21:49;;;;;;;3.08;1.95;;;;;;;20.27;51.83;101482.53;4857957;28;98017;-67
2022/09/05 07:24:26;;;;;;;3.28;1.90;;;;;;;20.34;51.98;101482.13;4831232;28;98812;-67
2022/09/05 07:26:59;;;;;;;3.80;1.65;;;;;;;20.51;51.72;101484.22;4842736;28;98391;-76
2022/09/05 07:29:42;;;;;;;5.40;1.48;;;;;;;20.69;51.46;101477.75;4869327;28;98386;-76
2022/09/05 07:32:14;;;;;;;3.97;1.50;;;;;;;20.90;51.40;101482.72;4857839;28;98120;-67
2022/09/05 07:34:46;;;;;;;4.73;2.10;;;;;;;21.04;51.02;101481.53;4862311;28;98464;-67
2022/09/05 07:37:22;;;;;;;;;;;;;;;21.39;50.31;101484.50;4878309;28;98017;-76
2022/09/05 07:40:00;;;;;;;3.97;1.85;;;;;;;21.42;50.58;101494.00;4890532;28;97872;-67
2022/09/05 07:42:41;;;;;;;2.67;1.42;;;;;;;21.69;50.25;101501.22;4870466;28;98458;-67
2022/09/05 07:45:25;;;;;;;2.05;1.30;;;;;;;21.98;49.91;101492.44;4864849;28;98666;-74
2022/09/05 07:48:01;;;;;;;2.55;1.40;;;;;;;22.20;49.54;101497.00;4907182;28;98042;-76
2022/09/05 07:50:30;;;;;;;2.92;1.63;;;;;;;22.32;49.74;101490.88;4904166;28;97818;-67
2022/09/05 07:53:03;;;;;;;2.78;1.42;;;;;;;22.52;49.31;101495.75;4888919;28;98424;-76
2022/09/05 07:55:40;;;;;;;3.08;1.50;;;;;;;22.94;48.88;101487.81;4881903;28;98253;-67
2022/09/05 07:58:16;;;;;;;2.80;1.55;;;;;;;23.33;48.11;101489.47;4879738;28;98272;-76
2022/09/05 08:00:46;;;;;;;3.00;1.25;;;;;;;23.81;47.55;101479.25;4880398;28;98505;-76
2022/09/05 08:03:15;;;;;;;4.73;1.40;;;;;;;24.35;46.84;101473.88;4857843;28;98093;-76
2022/09/05 08:05:51;;;;;;;3.22;1.52;;;;;;;24.78;46.28;101475.47;4844854;28;100474;-76
2022/09/05 08:08:24;;;;;;;1.95;1.33;;;;;;;25.27;45.75;101476.44;4843989;28;98237;-77
2022/09/05 08:11:20;;;;;;;3.13;1.48;;;;;;;25.83;45.08;101475.88;4855243;28;97962;-76
2022/09/05 08:14:24;;;;;;;3.05;1.73;;;;;;;26.43;44.51;101479.66;4899302;28;98009;-68
2022/09/05 08:16:51;;;;;;;2.50;1.40;;;;;;;27.05;43.44;101481.00;4895874;28;100122;-69
2022/09/05 08:19:50;;;;;;;2.85;1.50;;;;;;;27.68;43.21;101476.66;4897359;28;98279;-77
2022/09/05 08:22:28;;;;;;;7.18;2.60;;;;;;;28.15;42.76;101473.78;4877815;28;98111;-77
2022/09/05 08:25:33;;;;;;;4.18;1.75;;;;;;;29.05;41.77;101468.09;4886689;28;98070;-76
2022/09/05 08:28:31;;;;;;;2.80;1.17;;;;;;;29.43;41.33;101469.09;4902894;28;98306;-77
2022/09/05 08:31:18;;;;;;;2.40;1.63;;;;;;;30.23;40.10;101467.94;4864199;28;98530;-68
2022/09/05 08:33:47;;;;;;;2.28;1.60;;;;;;;31.12;38.86;101479.25;4848642;28;98157;-77
2022/09/05 08:36:35;;;;;;;1.83;1.13;;;;;;;31.75;38.13;101478.19;4842501;28;98009;-77
2022/09/05 08:39:03;;;;;;;2.65;1.38;;;;;;;32.27;37.86;101458.59;4880294;28;98132;-77
2022/09/05 08:42:08;;;;;;;2.55;1.38;;;;;;;32.92;37.77;101457.56;4858581;28;98030;-69
2022/09/05 08:44:42;;;;;;;3.88;1.50;;;;;;;33.05;36.90;101454.41;4869557;28;98193;-69
2022/09/05 08:47:14;;;;;;;3.17;1.65;;;;;;;33.10;36.57;101454.81;4871375;28;98111;-66
2022/09/05 08:49:58;;;;;;;;;;;;;;;33.98;37.05;101446.75;4873636;28;98201;-69
2022/09/05 08:52:55;;;;;;;1.40;0.98;;;;;;;33.75;36.51;101438.00;4890382;28;99087;-69
2022/09/05 08:55:53;;;;;;;5.07;1.38;;;;;;;34.12;36.17;101446.69;4849683;28;99219;-77
2022/09/05 08:58:51;;;;;;;3.05;1.40;;;;;;;34.67;35.76;101434.03;4887914;28;98428;-69
2022/09/05 09:01:32;;;;;;;2.55;1.42;;;;;;;34.87;35.33;101435.09;4859131;28;97968;-69
2022/09/05 09:04:37;;;;;;;1.70;1.13;;;;;;;35.05;35.21;101437.78;4853718;28;98203;-69
2022/09/05 09:07:14;;;;;;;2.55;1.15;;;;;;;35.58;34.25;101430.13;4907545;28;97991;-77
2022/09/05 09:10:27;;;;;;;3.40;1.35;;;;;;;36.06;33.92;101443.19;4870468;28;98198;-69
2022/09/05 09:13:27;;;;;;;1.73;1.23;;;;;;;36.51;33.66;101431.78;4869071;28;98452;-77
2022/09/05 09:16:15;;;;;;;2.10;1.30;;;;;;;37.22;32.07;101427.88;4866819;28;98085;-78
2022/09/05 09:18:48;;;;;;;1.88;1.00;;;;;;;37.81;32.21;101429.19;4887133;28;98397;-77
2022/09/05 09:21:35;;;;;;;2.85;1.52;;;;;;;37.73;32.11;101427.72;4890229;28;100042;-77
2022/09/05 09:24:30;;;;;;;1.80;1.10;;;;;;;37.21;32.76;101426.25;4848594;28;98133;-77
2022/09/05 09:27:05;;;;;;;1.80;0.93;;;;;;;37.08;32.52;101422.50;4868468;28;98875;-69
2022/09/05 09:29:35;;;;;;;2.08;1.30;;;;;;;37.36;31.69;101429.63;4837863;28;99016;-77
2022/09/05 09:32:23;;;;;;;1.87;1.40;;;;;;;38.17;31.56;101428.47;4861806;28;98185;-69
2022/09/05 09:35:19;;;;;;;1.85;1.23;;;;;;;39.19;30.29;101424.44;4863090;28;98103;-69
2022/09/05 09:38:24;;;;;;;1.88;1.20;;;;;;;39.89;29.59;101428.63;4866032;28;98224;-77
2022/09/05 09:41:25;;;;;;;2.20;1.60;;;;;;;40.67;29.20;101411.28;4884486;28;98126;-78
2022/09/05 09:44:56;;;;;;;2.58;1.30;;;;;;;41.86;28.01;101405.97;4898219;28;97610;-69
2022/09/05 09:47:57;;;;;;;;;;;;;;;42.46;28.89;101413.34;4817091;28;98227;-70
2022/09/05 09:50:52;;;;;;;2.05;1.15;;;;;;;42.99;27.88;101416.00;4879054;28;98137;-69
2022/09/05 09:53:36;;;;;;;1.88;1.23;;;;;;;43.74;27.26;101404.19;4894931;28;98565;-77
2022/09/05 09:56:52;;;;;;;2.30;1.30;;;;;;;44.08;26.83;101413.59;4907307;28;98085;-78
2022/09/05 09:59:50;;;;;;;1.60;1.10;;;;;;;43.62;27.14;101405.16;4898904;28;98625;-68
2022/09/05 10:03:00;;;;;;;1.63;1.25;;;;;;;44.03;26.67;101395.16;4905474;28;98466;-78
2022/09/05 10:06:24;;;;;;;1.80;1.17;;;;;;;44.64;26.16;101395.03;4869038;28;98513;-78
2022/09/05 10:09:04;;;;;;;1.70;1.13;;;;;;;44.25;26.08;101394.09;4908071;28;97955;-70
2022/09/05 10:12:14;;;;;;;1.40;1.20;;;;;;;44.09;26.10;101389.59;4866759;28;98119;-78
2022/09/05 10:15:03;;;;;;;2.17;1.20;;;;;;;43.87;26.26;101380.56;4877439;28;98216;-77
2022/09/05 10:18:00;;;;;;;1.55;1.00;;;;;;;42.77;27.01;101378.50;4898243;28;97962;-69
2022/09/05 10:20:53;;;;;;;1.90;1.27;;;;;;;42.68;26.07;101381.31;4885540;28;98314;-69
2022/09/05 10:23:40;;;;;;;2.05;1.20;;;;;;;43.15;25.74;101375.25;4903213;28;97991;-78
2022/09/05 10:27:04;;;;;;;2.35;1.10;;;;;;;44.38;25.16;101376.91;4895438;28;97952;-78
2022/09/05 10:30:09;;;;;;;1.80;1.20;;;;;;;45.64;24.50;101372.00;4889054;28;98095;-76
2022/09/05 10:33:00;;;;;;;1.05;0.93;;;;;;;46.04;24.08;101362.84;4837761;28;97985;-70
2022/09/05 10:35:44;;;;;;;2.30;1.30;;;;;;;46.40;23.17;101355.09;4903250;28;97892;-70
2022/09/05 10:38:39;;;;;;;2.38;1.38;;;;;;;46.55;23.07;101350.13;4849970;28;97820;-78
2022/09/05 10:41:21;;;;;;;1.80;1.23;;;;;;;46.59;23.14;101347.88;4853094;28;98000;-79
2022/09/05 10:44:02;;;;;;;1.65;1.10;;;;;;;46.55;23.24;101340.78;4864561;28;97959;-70
2022/09/05 10:46:55;;;;;;;2.28;1.10;;;;;;;46.44;23.10;101336.50;4860827;28;98262;-78
2022/09/05 10:49:27;;;;;;;1.92;1.40;;;;;;;46.78;23.03;101339.03;4862306;28;99463;-79
2022/09/05 10:52:16;;;;;;;1.45;1.15;;;;;;;46.94;22.55;101339.25;4891799;28;98317;-70
2022/09/05 10:55:00;;;;;;;1.83;1.20;;;;;;;46.90;22.46;101330.09;4831020;28;98044;-78
2022/09/05 10:57:59;;;;;;;2.05;1.30;;;;;;;45.13;23.88;101324.75;4885495;28;97916;-70
2022/09/05 11:00:43;;;;;;;1.95;1.20;;;;;;;43.91;24.30;101322.34;4862039;28;97907;-70
2022/09/05 11:03:17;;;;;;;2.10;1.20;;;;;;;43.45;24.11;101322.44;4911492;28;97982;-69
2022/09/05 11:06:00;;;;;;;1.88;1.15;;;;;;;43.49;24.37;101314.59;4846873;28;98596;-77
2022/09/05 11:08:48;;;;;;;1.52;1.38;;;;;;;43.41;24.13;101309.69;4881967;28;98041;-78
2022/09/05 11:11:18;;;;;;;1.50;1.20;;;;;;;42.71;24.48;101310.34;4862676;28;97950;-69
2022/09/05 11:13:54;;;;;;;1.00;0.88;;;;;;;41.19;25.95;101301.78;4867166;28;97893;-76
2022/09/05 11:16:51;;;;;;;1.50;1.20;;;;;;;40.31;26.42;101306.41;4829594;28;99326;-70
2022/09/05 11:19:41;;;;;;;1.80;1.20;;;;;;;40.26;26.09;101296.47;4861709;28;97928;-69
2022/09/05 11:22:11;;;;;;;2.83;1.15;;;;;;;40.62;25.87;101306.59;4839534;28;97909;-78
2022/09/05 11:24:57;;;;;;;2.30;1.25;;;;;;;40.88;25.75;101301.66;4871369;28;98291;-70
2022/09/05 11:27:44;;;;;;;2.22;1.23;;;;;;;41.35;24.84;101314.94;4858130;28;99342;-69
2022/09/05 11:30:23;;;;;;;2.15;1.13;;;;;;;42.37;23.87;101300.84;4842715;28;98145;-69
2022/09/05 11:33:00;;;;;;;1.73;1.23;;;;;;;42.98;23.64;101303.88;4831720;28;98684;-78
2022/09/05 11:35:51;;;;;;;1.15;0.82;;;;;;;43.20;23.60;101297.28;4867603;28;98148;-70
2022/09/05 11:38:57;;;;;;;1.80;1.23;;;;;;;43.13;23.56;101293.50;4867608;28;98696;-69
2022/09/05 11:41:52;;;;;;;2.90;1.00;;;;;;;43.65;23.35;101296.41;4862783;28;97887;-77
2022/09/05 11:44:35;;;;;;;1.75;1.30;;;;;;;43.61;23.44;101288.06;4866153;28;98105;-69
2022/09/05 11:47:29;;;;;;;1.95;1.20;;;;;;;41.57;25.25;101284.59;4858225;28;98146;-70
2022/09/05 11:50:33;;;;;;;2.53;1.20;;;;;;;41.30;24.71;101281.56;4872695;28;98148;-70
2022/09/05 11:53:23;;;;;;;2.45;1.10;;;;;;;42.25;24.37;101283.97;4877069;28;98071;-69
2022/09/05 11:56:18;;;;;;;;;;;;;;;43.11;23.96;101283.91;4911670;28;98037;-77
2022/09/05 11:59:09;;;;;;;1.60;1.08;;;;;;;42.39;23.75;101281.31;4886878;28;98054;-77
2022/09/05 12:02:20;;;;;;;1.92;1.13;;;;;;;42.25;24.24;101276.28;4868190;28;98252;-73
2022/09/05 12:05:22;;;;;;;;;;;;;;;42.57;24.54;101276.97;4864694;28;97970;-69
2022/09/05 12:08:05;;;;;;;2.13;1.20;;;;;;;41.78;24.90;101270.84;4873239;28;98001;-77
2022/09/05 12:11:00;;;;;;;2.45;1.20;;;;;;;41.80;24.65;101266.31;4871182;28;98449;-69
2022/09/05 12:13:35;;;;;;;1.75;1.20;;;;;;;41.38;24.86;101261.06;4850917;28;98128;-69
2022/09/05 12:16:18;;;;;;;1.73;1.25;;;;;;;41.05;25.23;101262.72;4868990;28;97990;-69
2022/09/05 12:19:05;;;;;;;2.35;1.25;;;;;;;40.71;25.38;101255.84;4872377;28;97910;-69
2022/09/05 12:22:19;;;;;;;2.63;1.08;;;;;;;40.29;25.80;101256.06;4856228;28;98098;-69
2022/09/05 12:25:39;;;;;;;4.80;1.50;;;;;;;39.93;25.84;101256.41;4854037;28;98049;-68
2022/09/05 12:28:10;;;;;;;2.22;1.40;;;;;;;39.41;25.90;101249.13;4905698;28;97820;-76
2022/09/05 12:30:40;;;;;;;1.85;1.10;;;;;;;39.00;26.45;101247.88;4841947;28;98063;-77
2022/09/05 12:33:12;;;;;;;2.77;1.40;;;;;;;38.64;26.83;101246.00;4876634;28;98229;-75
2022/09/05 12:36:03;;;;;;;2.53;1.30;;;;;;;38.23;27.49;101250.22;4890784;28;98172;-77
2022/09/05 12:38:51;;;;;;;2.78;1.30;;;;;;;37.62;27.61;101241.63;4834134;28;98303;-76
2022/09/05 12:41:25;;;;;;;1.70;1.23;;;;;;;37.24;28.27;101237.16;4833594;28;97985;-68
2022/09/05 12:44:22;;;;;;;2.88;1.33;;;;;;;36.90;28.18;101233.81;4841191;28;98272;-76
2022/09/05 12:47:04;;;;;;;2.38;1.38;;;;;;;35.26;30.18;101232.31;4872552;28;97926;-69
2022/09/05 12:49:50;;;;;;;2.05;1.30;;;;;;;34.32;30.59;101228.81;4846142;28;98294;-76
2022/09/05 12:52:32;;;;;;;2.65;1.33;;;;;;;34.39;30.26;101222.38;4873177;28;98101;-68
2022/09/05 12:55:08;;;;;;;2.67;1.67;;;;;;;34.26;30.84;101221.28;4874048;28;98342;-68
2022/09/05 12:57:36;;;;;;;2.40;1.58;;;;;;;34.11;30.91;101220.59;4858486;28;97924;-68
2022/09/05 13:00:20;;;;;;;2.60;1.48;;;;;;;34.03;30.81;101219.84;4853559;28;97763;-76
2022/09/05 13:02:55;;;;;;;1.70;1.23;;;;;;;33.89;31.06;101225.53;4834526;28;98164;-76
2022/09/05 13:05:44;;;;;;;2.47;1.48;;;;;;;33.51;31.59;101225.34;4854395;28;98058;-68
2022/09/05 13:08:11;;;;;;;2.35;1.70;;;;;;;32.78;32.23;101227.91;4830203;28;98711;-68
2022/09/05 13:10:40;;;;;;;1.67;1.35;;;;;;;32.69;32.03;101220.75;4856465;28;98393;-76
2022/09/05 13:13:28;;;;;;;3.22;1.60;;;;;;;32.63;31.99;101230.75;4843490;28;97984;-68
2022/09/05 13:15:55;;;;;;;3.60;1.77;;;;;;;32.54;32.51;101233.16;4863902;28;98122;-68